sensor_id;sensor_type;location;lat;lon;timestamp;P1;durP1;ratioP1;P2;durP2;ratioP2
7076;SDS011;3579;48.956;9.154;2022-12-07T00:01:08;1.20;;;1.10;;
7076;SDS011;3579;48.956;9.154;2022-12-07T00:03:35;1.10;;;1.00;;
7076;SDS011;3579;48.956;9.154;2022-12-07T00:06:02;1.17;;;1.00;;
7076;SDS011;3579;48.956;9.154;2022-12-07T00:08:30;1.10;;;1.00;;
7076;SDS011;3579;48.956;9.154;2022-12-07T00:11:07;1.20;;;1.10;;
7076;SDS011;3579;48.956;9.154;2022-12-07T00:13:35;1.40;;;1.30;;
7076;SDS011;3579;48.956;9.154;2022-12-07T00:16:06;0.90;;;0.90;;
7076;SDS011;3579;48.956;9.154;2022-12-07T00:18:35;1.40;;;1.30;;
7076;SDS011;3579;48.956;9.154;2022-12-07T00:21:03;1.20;;;1.10;;
7076;SDS011;3579;48.956;9.154;2022-12-07T00:23:31;1.20;;;1.10;;
7076;SDS011;3579;48.956;9.154;2022-12-07T00:26:05;1.20;;;1.10;;
7076;SDS011;3579;48.956;9.154;2022-12-07T00:28:32;1.00;;;0.90;;
7076;SDS011;3579;48.956;9.154;2022-12-07T00:31:00;1.20;;;0.97;;
7076;SDS011;3579;48.956;9.154;2022-12-07T00:33:36;1.00;;;1.00;;
7076;SDS011;3579;48.956;9.154;2022-12-07T00:36:07;1.10;;;1.00;;
7076;SDS011;3579;48.956;9.154;2022-12-07T00:38:38;1.10;;;1.00;;
7076;SDS011;3579;48.956;9.154;2022-12-07T00:41:26;1.10;;;1.00;;
7076;SDS011;3579;48.956;9.154;2022-12-07T00:43:52;1.30;;;1.20;;
7076;SDS011;3579;48.956;9.154;2022-12-07T00:46:19;1.20;;;1.10;;
7076;SDS011;3579;48.956;9.154;2022-12-07T00:48:46;1.10;;;1.00;;
7076;SDS011;3579;48.956;9.154;2022-12-07T00:51:13;1.10;;;1.00;;
7076;SDS011;3579;48.956;9.154;2022-12-07T00:53:41;1.20;;;1.10;;
7076;SDS011;3579;48.956;9.154;2022-12-07T00:56:08;1.30;;;1.20;;
7076;SDS011;3579;48.956;9.154;2022-12-07T00:58:39;1.20;;;1.10;;
7076;SDS011;3579;48.956;9.154;2022-12-07T01:01:06;1.10;;;1.00;;
7076;SDS011;3579;48.956;9.154;2022-12-07T01:03:34;1.37;;;1.00;;
7076;SDS011;3579;48.956;9.154;2022-12-07T01:06:01;1.10;;;1.00;;
7076;SDS011;3579;48.956;9.154;2022-12-07T01:08:28;1.20;;;1.10;;
7076;SDS011;3579;48.956;9.154;2022-12-07T01:11:14;1.17;;;1.07;;
7076;SDS011;3579;48.956;9.154;2022-12-07T01:13:42;1.20;;;1.10;;
7076;SDS011;3579;48.956;9.154;2022-12-07T01:16:10;1.07;;;0.97;;
7076;SDS011;3579;48.956;9.154;2022-12-07T01:18:38;1.20;;;1.10;;
7076;SDS011;3579;48.956;9.154;2022-12-07T01:21:12;1.27;;;1.17;;
7076;SDS011;3579;48.956;9.154;2022-12-07T01:23:44;1.00;;;0.90;;
7076;SDS011;3579;48.956;9.154;2022-12-07T01:26:11;1.10;;;1.00;;
7076;SDS011;3579;48.956;9.154;2022-12-07T01:28:39;1.20;;;1.10;;
7076;SDS011;3579;48.956;9.154;2022-12-07T01:31:09;1.30;;;1.10;;
7076;SDS011;3579;48.956;9.154;2022-12-07T01:33:37;1.10;;;1.00;;
7076;SDS011;3579;48.956;9.154;2022-12-07T01:36:05;0.97;;;0.97;;
7076;SDS011;3579;48.956;9.154;2022-12-07T01:38:33;1.20;;;1.03;;
7076;SDS011;3579;48.956;9.154;2022-12-07T01:41:00;1.40;;;1.30;;
7076;SDS011;3579;48.956;9.154;2022-12-07T01:43:28;1.07;;;1.00;;
7076;SDS011;3579;48.956;9.154;2022-12-07T01:45:56;1.17;;;1.07;;
7076;SDS011;3579;48.956;9.154;2022-12-07T01:51:08;1.10;;;1.00;;
7076;SDS011;3579;48.956;9.154;2022-12-07T01:53:38;1.13;;;1.00;;
7076;SDS011;3579;48.956;9.154;2022-12-07T01:56:08;1.17;;;1.00;;
7076;SDS011;3579;48.956;9.154;2022-12-07T01:58:38;1.10;;;1.00;;
7076;SDS011;3579;48.956;9.154;2022-12-07T02:01:04;1.20;;;1.10;;
7076;SDS011;3579;48.956;9.154;2022-12-07T02:03:32;1.10;;;1.00;;
7076;SDS011;3579;48.956;9.154;2022-12-07T02:06:05;1.37;;;1.17;;
7076;SDS011;3579;48.956;9.154;2022-12-07T02:08:34;1.20;;;1.10;;
7076;SDS011;3579;48.956;9.154;2022-12-07T02:11:01;1.17;;;1.00;;
7076;SDS011;3579;48.956;9.154;2022-12-07T02:13:30;1.10;;;1.00;;
7076;SDS011;3579;48.956;9.154;2022-12-07T02:18:44;1.40;;;1.13;;
7076;SDS011;3579;48.956;9.154;2022-12-07T02:30:10;1.17;;;1.07;;
7076;SDS011;3579;48.956;9.154;2022-12-07T02:32:55;1.13;;;1.03;;
7076;SDS011;3579;48.956;9.154;2022-12-07T02:41:13;1.17;;;1.07;;
7076;SDS011;3579;48.956;9.154;2022-12-07T02:43:50;1.07;;;1.00;;
7076;SDS011;3579;48.956;9.154;2022-12-07T02:46:28;1.03;;;1.00;;
7076;SDS011;3579;48.956;9.154;2022-12-07T02:48:57;1.10;;;1.00;;
7076;SDS011;3579;48.956;9.154;2022-12-07T02:51:25;1.27;;;1.10;;
7076;SDS011;3579;48.956;9.154;2022-12-07T02:53:54;1.10;;;1.00;;
7076;SDS011;3579;48.956;9.154;2022-12-07T03:01:55;1.10;;;1.00;;
7076;SDS011;3579;48.956;9.154;2022-12-07T03:07:06;1.13;;;1.03;;
7076;SDS011;3579;48.956;9.154;2022-12-07T03:09:48;1.30;;;1.20;;
7076;SDS011;3579;48.956;9.154;2022-12-07T03:12:22;1.23;;;1.13;;
7076;SDS011;3579;48.956;9.154;2022-12-07T03:14:58;1.30;;;1.10;;
7076;SDS011;3579;48.956;9.154;2022-12-07T03:17:33;1.20;;;1.10;;
7076;SDS011;3579;48.956;9.154;2022-12-07T03:20:04;1.17;;;1.07;;
7076;SDS011;3579;48.956;9.154;2022-12-07T03:22:34;1.07;;;0.93;;
7076;SDS011;3579;48.956;9.154;2022-12-07T03:25:07;1.53;;;1.00;;
7076;SDS011;3579;48.956;9.154;2022-12-07T03:27:57;1.20;;;1.10;;
7076;SDS011;3579;48.956;9.154;2022-12-07T03:30:39;1.30;;;1.20;;
7076;SDS011;3579;48.956;9.154;2022-12-07T03:33:28;1.20;;;1.10;;
7076;SDS011;3579;48.956;9.154;2022-12-07T03:36:09;1.20;;;1.00;;
7076;SDS011;3579;48.956;9.154;2022-12-07T03:41:33;1.33;;;1.10;;
7076;SDS011;3579;48.956;9.154;2022-12-07T03:44:01;0.90;;;0.90;;
7076;SDS011;3579;48.956;9.154;2022-12-07T03:54:53;1.20;;;1.10;;
7076;SDS011;3579;48.956;9.154;2022-12-07T03:57:25;1.30;;;1.20;;
7076;SDS011;3579;48.956;9.154;2022-12-07T03:59:54;0.97;;;0.97;;
7076;SDS011;3579;48.956;9.154;2022-12-07T04:02:22;1.20;;;1.10;;
7076;SDS011;3579;48.956;9.154;2022-12-07T04:04:50;1.00;;;1.00;;
7076;SDS011;3579;48.956;9.154;2022-12-07T04:07:17;1.17;;;1.07;;
7076;SDS011;3579;48.956;9.154;2022-12-07T04:09:43;1.10;;;1.00;;
7076;SDS011;3579;48.956;9.154;2022-12-07T04:12:10;1.40;;;1.10;;
7076;SDS011;3579;48.956;9.154;2022-12-07T04:14:36;1.23;;;1.13;;
7076;SDS011;3579;48.956;9.154;2022-12-07T04:17:02;1.20;;;1.10;;
7076;SDS011;3579;48.956;9.154;2022-12-07T04:19:29;0.97;;;0.93;;
7076;SDS011;3579;48.956;9.154;2022-12-07T04:21:58;1.10;;;1.00;;
7076;SDS011;3579;48.956;9.154;2022-12-07T04:24:26;1.67;;;1.07;;
7076;SDS011;3579;48.956;9.154;2022-12-07T04:26:53;1.33;;;1.10;;
7076;SDS011;3579;48.956;9.154;2022-12-07T04:29:19;1.20;;;1.10;;
7076;SDS011;3579;48.956;9.154;2022-12-07T04:31:46;1.10;;;1.00;;
7076;SDS011;3579;48.956;9.154;2022-12-07T04:34:13;1.10;;;1.00;;
7076;SDS011;3579;48.956;9.154;2022-12-07T04:36:40;1.20;;;1.10;;
7076;SDS011;3579;48.956;9.154;2022-12-07T04:39:07;1.30;;;1.20;;
7076;SDS011;3579;48.956;9.154;2022-12-07T04:41:39;1.03;;;0.97;;
7076;SDS011;3579;48.956;9.154;2022-12-07T04:44:05;1.37;;;1.27;;
7076;SDS011;3579;48.956;9.154;2022-12-07T04:46:32;1.00;;;0.90;;
7076;SDS011;3579;48.956;9.154;2022-12-07T04:48:59;1.20;;;1.10;;
7076;SDS011;3579;48.956;9.154;2022-12-07T04:51:26;1.10;;;1.00;;
7076;SDS011;3579;48.956;9.154;2022-12-07T04:53:53;1.10;;;1.00;;
7076;SDS011;3579;48.956;9.154;2022-12-07T04:56:20;1.00;;;1.00;;
7076;SDS011;3579;48.956;9.154;2022-12-07T04:58:48;1.27;;;1.17;;
7076;SDS011;3579;48.956;9.154;2022-12-07T05:01:15;1.30;;;1.20;;
7076;SDS011;3579;48.956;9.154;2022-12-07T05:03:42;1.20;;;1.10;;
7076;SDS011;3579;48.956;9.154;2022-12-07T05:06:09;1.00;;;1.00;;
7076;SDS011;3579;48.956;9.154;2022-12-07T05:08:36;0.90;;;0.90;;
7076;SDS011;3579;48.956;9.154;2022-12-07T05:11:03;1.10;;;1.00;;
7076;SDS011;3579;48.956;9.154;2022-12-07T05:13:30;1.40;;;1.10;;
7076;SDS011;3579;48.956;9.154;2022-12-07T05:15:57;1.10;;;1.00;;
7076;SDS011;3579;48.956;9.154;2022-12-07T05:18:23;1.20;;;1.10;;
7076;SDS011;3579;48.956;9.154;2022-12-07T05:20:50;1.03;;;1.00;;
7076;SDS011;3579;48.956;9.154;2022-12-07T05:23:17;1.10;;;1.00;;
7076;SDS011;3579;48.956;9.154;2022-12-07T05:25:43;1.97;;;1.20;;
7076;SDS011;3579;48.956;9.154;2022-12-07T05:28:10;1.20;;;1.10;;
7076;SDS011;3579;48.956;9.154;2022-12-07T05:30:36;1.10;;;1.00;;
7076;SDS011;3579;48.956;9.154;2022-12-07T05:33:02;1.20;;;1.10;;
7076;SDS011;3579;48.956;9.154;2022-12-07T05:35:29;0.90;;;0.90;;
7076;SDS011;3579;48.956;9.154;2022-12-07T05:37:55;1.00;;;1.00;;
7076;SDS011;3579;48.956;9.154;2022-12-07T05:40:22;1.10;;;1.00;;
7076;SDS011;3579;48.956;9.154;2022-12-07T05:42:49;2.13;;;1.20;;
7076;SDS011;3579;48.956;9.154;2022-12-07T05:45:15;1.00;;;1.00;;
7076;SDS011;3579;48.956;9.154;2022-12-07T05:47:41;0.80;;;0.80;;
7076;SDS011;3579;48.956;9.154;2022-12-07T05:50:07;1.23;;;1.10;;
7076;SDS011;3579;48.956;9.154;2022-12-07T05:52:34;1.10;;;1.00;;
7076;SDS011;3579;48.956;9.154;2022-12-07T05:55:00;1.20;;;1.10;;
7076;SDS011;3579;48.956;9.154;2022-12-07T05:57:26;1.10;;;1.00;;
7076;SDS011;3579;48.956;9.154;2022-12-07T05:59:52;1.00;;;0.97;;
7076;SDS011;3579;48.956;9.154;2022-12-07T06:02:18;1.13;;;1.03;;
7076;SDS011;3579;48.956;9.154;2022-12-07T06:04:45;1.20;;;1.10;;
7076;SDS011;3579;48.956;9.154;2022-12-07T06:07:14;1.10;;;1.00;;
7076;SDS011;3579;48.956;9.154;2022-12-07T06:09:41;1.10;;;1.00;;
7076;SDS011;3579;48.956;9.154;2022-12-07T06:12:09;1.03;;;0.93;;
7076;SDS011;3579;48.956;9.154;2022-12-07T06:14:55;1.17;;;1.07;;
7076;SDS011;3579;48.956;9.154;2022-12-07T06:17:21;1.10;;;1.00;;
7076;SDS011;3579;48.956;9.154;2022-12-07T06:19:47;1.20;;;1.10;;
7076;SDS011;3579;48.956;9.154;2022-12-07T06:22:13;0.90;;;0.90;;
7076;SDS011;3579;48.956;9.154;2022-12-07T06:24:39;1.30;;;1.20;;
7076;SDS011;3579;48.956;9.154;2022-12-07T06:27:05;1.00;;;0.90;;
7076;SDS011;3579;48.956;9.154;2022-12-07T06:29:32;1.20;;;1.10;;
7076;SDS011;3579;48.956;9.154;2022-12-07T06:31:58;1.10;;;1.00;;
7076;SDS011;3579;48.956;9.154;2022-12-07T06:34:24;1.00;;;0.90;;
7076;SDS011;3579;48.956;9.154;2022-12-07T06:36:51;1.07;;;1.00;;
7076;SDS011;3579;48.956;9.154;2022-12-07T06:39:21;1.10;;;1.00;;
7076;SDS011;3579;48.956;9.154;2022-12-07T06:41:48;1.30;;;1.20;;
7076;SDS011;3579;48.956;9.154;2022-12-07T06:44:15;1.17;;;1.07;;
7076;SDS011;3579;48.956;9.154;2022-12-07T06:46:41;1.00;;;1.00;;
7076;SDS011;3579;48.956;9.154;2022-12-07T06:49:07;1.40;;;1.20;;
7076;SDS011;3579;48.956;9.154;2022-12-07T06:51:34;1.30;;;1.20;;
7076;SDS011;3579;48.956;9.154;2022-12-07T06:54:10;1.27;;;1.17;;
7076;SDS011;3579;48.956;9.154;2022-12-07T06:56:37;1.20;;;1.10;;
7076;SDS011;3579;48.956;9.154;2022-12-07T06:59:04;1.20;;;1.10;;
7076;SDS011;3579;48.956;9.154;2022-12-07T07:01:32;1.47;;;1.27;;
7076;SDS011;3579;48.956;9.154;2022-12-07T07:03:59;1.10;;;1.00;;
7076;SDS011;3579;48.956;9.154;2022-12-07T07:06:26;1.30;;;1.20;;
7076;SDS011;3579;48.956;9.154;2022-12-07T07:08:52;1.20;;;1.10;;
7076;SDS011;3579;48.956;9.154;2022-12-07T07:11:19;1.33;;;1.23;;
7076;SDS011;3579;48.956;9.154;2022-12-07T07:13:45;1.20;;;1.10;;
7076;SDS011;3579;48.956;9.154;2022-12-07T07:16:12;1.20;;;1.10;;
7076;SDS011;3579;48.956;9.154;2022-12-07T07:18:38;1.20;;;1.10;;
7076;SDS011;3579;48.956;9.154;2022-12-07T07:21:04;1.50;;;1.40;;
7076;SDS011;3579;48.956;9.154;2022-12-07T07:23:30;1.20;;;1.10;;
7076;SDS011;3579;48.956;9.154;2022-12-07T07:25:56;1.10;;;1.00;;
7076;SDS011;3579;48.956;9.154;2022-12-07T07:28:22;1.30;;;1.20;;
7076;SDS011;3579;48.956;9.154;2022-12-07T07:30:48;1.37;;;1.27;;
7076;SDS011;3579;48.956;9.154;2022-12-07T07:33:14;1.20;;;1.10;;
7076;SDS011;3579;48.956;9.154;2022-12-07T07:35:40;1.20;;;1.10;;
7076;SDS011;3579;48.956;9.154;2022-12-07T07:38:07;1.20;;;1.10;;
7076;SDS011;3579;48.956;9.154;2022-12-07T07:40:34;1.20;;;1.10;;
7076;SDS011;3579;48.956;9.154;2022-12-07T07:43:00;1.13;;;1.03;;
7076;SDS011;3579;48.956;9.154;2022-12-07T07:45:27;1.20;;;1.10;;
7076;SDS011;3579;48.956;9.154;2022-12-07T07:47:53;1.10;;;1.00;;
7076;SDS011;3579;48.956;9.154;2022-12-07T07:50:19;1.40;;;1.30;;
7076;SDS011;3579;48.956;9.154;2022-12-07T07:52:47;1.30;;;1.20;;
7076;SDS011;3579;48.956;9.154;2022-12-07T07:55:13;1.30;;;1.10;;
7076;SDS011;3579;48.956;9.154;2022-12-07T07:57:40;1.37;;;1.27;;
7076;SDS011;3579;48.956;9.154;2022-12-07T08:00:07;1.30;;;1.10;;
7076;SDS011;3579;48.956;9.154;2022-12-07T08:02:36;1.20;;;1.10;;
7076;SDS011;3579;48.956;9.154;2022-12-07T08:05:02;1.30;;;1.20;;
7076;SDS011;3579;48.956;9.154;2022-12-07T08:07:28;1.20;;;1.10;;
7076;SDS011;3579;48.956;9.154;2022-12-07T08:09:54;1.60;;;1.27;;
7076;SDS011;3579;48.956;9.154;2022-12-07T08:12:20;1.57;;;1.20;;
7076;SDS011;3579;48.956;9.154;2022-12-07T08:14:48;1.20;;;1.10;;
7076;SDS011;3579;48.956;9.154;2022-12-07T08:17:14;1.20;;;1.10;;
7076;SDS011;3579;48.956;9.154;2022-12-07T08:19:40;1.20;;;1.10;;
7076;SDS011;3579;48.956;9.154;2022-12-07T08:22:06;1.30;;;1.10;;
7076;SDS011;3579;48.956;9.154;2022-12-07T08:24:33;1.10;;;1.00;;
7076;SDS011;3579;48.956;9.154;2022-12-07T08:27:00;1.30;;;1.20;;
7076;SDS011;3579;48.956;9.154;2022-12-07T08:29:26;2.60;;;1.20;;
7076;SDS011;3579;48.956;9.154;2022-12-07T08:31:52;1.30;;;1.20;;
7076;SDS011;3579;48.956;9.154;2022-12-07T08:34:19;1.40;;;1.20;;
7076;SDS011;3579;48.956;9.154;2022-12-07T08:36:45;1.37;;;1.27;;
7076;SDS011;3579;48.956;9.154;2022-12-07T08:39:11;2.50;;;1.30;;
7076;SDS011;3579;48.956;9.154;2022-12-07T08:41:37;2.43;;;1.27;;
7076;SDS011;3579;48.956;9.154;2022-12-07T08:44:04;1.30;;;1.20;;
7076;SDS011;3579;48.956;9.154;2022-12-07T08:46:33;1.20;;;1.10;;
7076;SDS011;3579;48.956;9.154;2022-12-07T08:49:09;1.83;;;1.03;;
7076;SDS011;3579;48.956;9.154;2022-12-07T08:51:39;2.10;;;1.40;;
7076;SDS011;3579;48.956;9.154;2022-12-07T08:54:07;1.63;;;1.33;;
7076;SDS011;3579;48.956;9.154;2022-12-07T08:56:36;1.30;;;1.20;;
7076;SDS011;3579;48.956;9.154;2022-12-07T08:59:03;2.90;;;1.37;;
7076;SDS011;3579;48.956;9.154;2022-12-07T09:01:40;1.47;;;1.30;;
7076;SDS011;3579;48.956;9.154;2022-12-07T09:04:41;2.33;;;1.30;;
7076;SDS011;3579;48.956;9.154;2022-12-07T09:07:07;1.40;;;1.30;;
7076;SDS011;3579;48.956;9.154;2022-12-07T09:09:35;3.20;;;1.40;;
7076;SDS011;3579;48.956;9.154;2022-12-07T09:12:01;1.30;;;1.20;;
7076;SDS011;3579;48.956;9.154;2022-12-07T09:14:28;1.60;;;1.30;;
7076;SDS011;3579;48.956;9.154;2022-12-07T09:16:55;4.17;;;1.60;;
7076;SDS011;3579;48.956;9.154;2022-12-07T09:19:30;1.37;;;1.20;;
7076;SDS011;3579;48.956;9.154;2022-12-07T09:21:56;1.73;;;1.40;;
7076;SDS011;3579;48.956;9.154;2022-12-07T09:24:22;1.50;;;1.40;;
7076;SDS011;3579;48.956;9.154;2022-12-07T09:26:49;3.80;;;1.50;;
7076;SDS011;3579;48.956;9.154;2022-12-07T09:29:16;1.80;;;1.40;;
7076;SDS011;3579;48.956;9.154;2022-12-07T09:31:42;1.30;;;1.20;;
7076;SDS011;3579;48.956;9.154;2022-12-07T09:34:08;1.50;;;1.37;;
7076;SDS011;3579;48.956;9.154;2022-12-07T09:36:35;1.63;;;1.40;;
7076;SDS011;3579;48.956;9.154;2022-12-07T09:39:01;1.37;;;1.27;;
7076;SDS011;3579;48.956;9.154;2022-12-07T09:41:30;2.50;;;1.30;;
7076;SDS011;3579;48.956;9.154;2022-12-07T09:44:04;2.87;;;1.40;;
7076;SDS011;3579;48.956;9.154;2022-12-07T09:46:36;1.30;;;1.20;;
7076;SDS011;3579;48.956;9.154;2022-12-07T09:49:08;2.37;;;1.30;;
7076;SDS011;3579;48.956;9.154;2022-12-07T09:51:42;1.70;;;1.40;;
7076;SDS011;3579;48.956;9.154;2022-12-07T09:54:09;1.57;;;1.30;;
7076;SDS011;3579;48.956;9.154;2022-12-07T09:56:38;1.30;;;1.20;;
7076;SDS011;3579;48.956;9.154;2022-12-07T09:59:05;1.50;;;1.40;;
7076;SDS011;3579;48.956;9.154;2022-12-07T10:01:32;1.97;;;1.33;;
7076;SDS011;3579;48.956;9.154;2022-12-07T10:04:09;1.47;;;1.37;;
7076;SDS011;3579;48.956;9.154;2022-12-07T10:06:36;1.50;;;1.40;;
7076;SDS011;3579;48.956;9.154;2022-12-07T10:09:08;2.53;;;1.30;;
7076;SDS011;3579;48.956;9.154;2022-12-07T10:11:57;1.60;;;1.40;;
7076;SDS011;3579;48.956;9.154;2022-12-07T10:14:28;1.57;;;1.47;;
7076;SDS011;3579;48.956;9.154;2022-12-07T10:16:56;1.40;;;1.30;;
7076;SDS011;3579;48.956;9.154;2022-12-07T10:19:24;1.43;;;1.33;;
7076;SDS011;3579;48.956;9.154;2022-12-07T10:22:11;1.60;;;1.20;;
7076;SDS011;3579;48.956;9.154;2022-12-07T10:24:41;1.93;;;1.30;;
7076;SDS011;3579;48.956;9.154;2022-12-07T10:30:07;1.30;;;1.20;;
7076;SDS011;3579;48.956;9.154;2022-12-07T10:32:39;1.30;;;1.20;;
7076;SDS011;3579;48.956;9.154;2022-12-07T10:35:19;1.40;;;1.30;;
7076;SDS011;3579;48.956;9.154;2022-12-07T10:37:47;1.43;;;1.33;;
7076;SDS011;3579;48.956;9.154;2022-12-07T10:40:34;1.27;;;1.17;;
7076;SDS011;3579;48.956;9.154;2022-12-07T10:45:54;1.60;;;1.27;;
7076;SDS011;3579;48.956;9.154;2022-12-07T10:49:01;1.50;;;1.40;;
7076;SDS011;3579;48.956;9.154;2022-12-07T11:05:16;1.67;;;1.50;;
7076;SDS011;3579;48.956;9.154;2022-12-07T11:10:55;1.70;;;1.40;;
7076;SDS011;3579;48.956;9.154;2022-12-07T11:22:06;2.60;;;1.40;;
7076;SDS011;3579;48.956;9.154;2022-12-07T11:24:44;4.50;;;1.60;;
7076;SDS011;3579;48.956;9.154;2022-12-07T11:30:13;1.40;;;1.20;;
7076;SDS011;3579;48.956;9.154;2022-12-07T11:40:45;2.07;;;1.50;;
7076;SDS011;3579;48.956;9.154;2022-12-07T11:43:24;2.10;;;1.53;;
7076;SDS011;3579;48.956;9.154;2022-12-07T11:48:38;1.80;;;1.30;;
7076;SDS011;3579;48.956;9.154;2022-12-07T11:51:12;1.50;;;1.40;;
7076;SDS011;3579;48.956;9.154;2022-12-07T11:53:48;1.93;;;1.40;;
7076;SDS011;3579;48.956;9.154;2022-12-07T11:56:21;3.43;;;1.40;;
7076;SDS011;3579;48.956;9.154;2022-12-07T12:02:13;1.40;;;1.27;;
7076;SDS011;3579;48.956;9.154;2022-12-07T12:04:35;1.87;;;1.37;;
7076;SDS011;3579;48.956;9.154;2022-12-07T12:07:26;2.80;;;1.50;;
7076;SDS011;3579;48.956;9.154;2022-12-07T12:12:36;1.53;;;1.33;;
7076;SDS011;3579;48.956;9.154;2022-12-07T12:15:23;2.53;;;1.40;;
7076;SDS011;3579;48.956;9.154;2022-12-07T12:21:03;2.10;;;1.63;;
7076;SDS011;3579;48.956;9.154;2022-12-07T12:26:07;1.87;;;1.40;;
7076;SDS011;3579;48.956;9.154;2022-12-07T12:28:40;2.73;;;1.50;;
7076;SDS011;3579;48.956;9.154;2022-12-07T12:31:15;2.80;;;1.33;;
7076;SDS011;3579;48.956;9.154;2022-12-07T12:33:52;1.50;;;1.40;;
7076;SDS011;3579;48.956;9.154;2022-12-07T12:36:27;1.87;;;1.50;;
7076;SDS011;3579;48.956;9.154;2022-12-07T12:59:25;1.70;;;1.40;;
7076;SDS011;3579;48.956;9.154;2022-12-07T13:15:40;1.70;;;1.30;;
7076;SDS011;3579;48.956;9.154;2022-12-07T13:28:40;1.73;;;1.40;;
7076;SDS011;3579;48.956;9.154;2022-12-07T13:33:42;2.13;;;1.60;;
7076;SDS011;3579;48.956;9.154;2022-12-07T13:36:29;1.97;;;1.40;;
7076;SDS011;3579;48.956;9.154;2022-12-07T13:39:19;1.60;;;1.50;;
7076;SDS011;3579;48.956;9.154;2022-12-07T13:41:53;1.53;;;1.43;;
7076;SDS011;3579;48.956;9.154;2022-12-07T13:44:23;1.60;;;1.40;;
7076;SDS011;3579;48.956;9.154;2022-12-07T13:46:53;2.27;;;1.40;;
7076;SDS011;3579;48.956;9.154;2022-12-07T13:49:28;1.70;;;1.40;;
7076;SDS011;3579;48.956;9.154;2022-12-07T13:52:06;1.70;;;1.40;;
7076;SDS011;3579;48.956;9.154;2022-12-07T13:54:45;1.53;;;1.43;;
7076;SDS011;3579;48.956;9.154;2022-12-07T13:57:14;2.27;;;1.40;;
7076;SDS011;3579;48.956;9.154;2022-12-07T13:59:43;2.10;;;1.43;;
7076;SDS011;3579;48.956;9.154;2022-12-07T14:02:19;1.57;;;1.33;;
7076;SDS011;3579;48.956;9.154;2022-12-07T14:04:49;2.27;;;1.50;;
7076;SDS011;3579;48.956;9.154;2022-12-07T14:12:52;1.70;;;1.60;;
7076;SDS011;3579;48.956;9.154;2022-12-07T14:15:20;1.83;;;1.60;;
7076;SDS011;3579;48.956;9.154;2022-12-07T14:17:50;1.40;;;1.30;;
7076;SDS011;3579;48.956;9.154;2022-12-07T14:20:28;1.90;;;1.50;;
7076;SDS011;3579;48.956;9.154;2022-12-07T14:23:01;1.63;;;1.40;;
7076;SDS011;3579;48.956;9.154;2022-12-07T14:25:47;1.80;;;1.47;;
7076;SDS011;3579;48.956;9.154;2022-12-07T14:28:28;3.67;;;1.60;;
7076;SDS011;3579;48.956;9.154;2022-12-07T14:30:56;2.20;;;1.50;;
7076;SDS011;3579;48.956;9.154;2022-12-07T14:33:24;1.80;;;1.43;;
7076;SDS011;3579;48.956;9.154;2022-12-07T14:35:50;1.87;;;1.60;;
7076;SDS011;3579;48.956;9.154;2022-12-07T14:38:24;1.60;;;1.50;;
7076;SDS011;3579;48.956;9.154;2022-12-07T14:40:52;1.97;;;1.40;;
7076;SDS011;3579;48.956;9.154;2022-12-07T14:43:19;1.63;;;1.50;;
7076;SDS011;3579;48.956;9.154;2022-12-07T14:45:45;2.03;;;1.50;;
7076;SDS011;3579;48.956;9.154;2022-12-07T14:48:13;2.60;;;1.40;;
7076;SDS011;3579;48.956;9.154;2022-12-07T14:50:41;2.47;;;1.50;;
7076;SDS011;3579;48.956;9.154;2022-12-07T14:53:14;1.83;;;1.67;;
7076;SDS011;3579;48.956;9.154;2022-12-07T14:55:42;1.50;;;1.40;;
7076;SDS011;3579;48.956;9.154;2022-12-07T14:58:15;2.37;;;1.50;;
7076;SDS011;3579;48.956;9.154;2022-12-07T15:00:43;1.80;;;1.70;;
7076;SDS011;3579;48.956;9.154;2022-12-07T15:03:10;1.50;;;1.40;;
7076;SDS011;3579;48.956;9.154;2022-12-07T15:05:38;1.77;;;1.67;;
7076;SDS011;3579;48.956;9.154;2022-12-07T15:08:06;1.90;;;1.70;;
7076;SDS011;3579;48.956;9.154;2022-12-07T15:10:34;1.70;;;1.60;;
7076;SDS011;3579;48.956;9.154;2022-12-07T15:13:04;2.00;;;1.57;;
7076;SDS011;3579;48.956;9.154;2022-12-07T15:15:49;3.97;;;1.70;;
7076;SDS011;3579;48.956;9.154;2022-12-07T15:18:18;2.13;;;1.80;;
7076;SDS011;3579;48.956;9.154;2022-12-07T15:20:45;1.70;;;1.60;;
7076;SDS011;3579;48.956;9.154;2022-12-07T15:23:11;2.50;;;1.60;;
7076;SDS011;3579;48.956;9.154;2022-12-07T15:25:41;1.60;;;1.50;;
7076;SDS011;3579;48.956;9.154;2022-12-07T15:28:08;2.80;;;1.80;;
7076;SDS011;3579;48.956;9.154;2022-12-07T15:30:36;1.60;;;1.50;;
7076;SDS011;3579;48.956;9.154;2022-12-07T15:33:03;1.97;;;1.73;;
7076;SDS011;3579;48.956;9.154;2022-12-07T15:35:29;1.60;;;1.50;;
7076;SDS011;3579;48.956;9.154;2022-12-07T15:37:55;1.77;;;1.60;;
7076;SDS011;3579;48.956;9.154;2022-12-07T15:40:21;1.63;;;1.40;;
7076;SDS011;3579;48.956;9.154;2022-12-07T15:42:47;2.10;;;1.53;;
7076;SDS011;3579;48.956;9.154;2022-12-07T15:45:13;1.87;;;1.60;;
7076;SDS011;3579;48.956;9.154;2022-12-07T15:47:40;3.07;;;1.50;;
7076;SDS011;3579;48.956;9.154;2022-12-07T15:50:08;1.60;;;1.50;;
7076;SDS011;3579;48.956;9.154;2022-12-07T15:52:36;2.47;;;1.80;;
7076;SDS011;3579;48.956;9.154;2022-12-07T15:55:03;2.23;;;1.60;;
7076;SDS011;3579;48.956;9.154;2022-12-07T15:57:30;2.60;;;1.90;;
7076;SDS011;3579;48.956;9.154;2022-12-07T15:59:57;1.60;;;1.40;;
7076;SDS011;3579;48.956;9.154;2022-12-07T16:02:23;1.63;;;1.53;;
7076;SDS011;3579;48.956;9.154;2022-12-07T16:04:50;1.90;;;1.60;;
7076;SDS011;3579;48.956;9.154;2022-12-07T16:07:17;1.70;;;1.60;;
7076;SDS011;3579;48.956;9.154;2022-12-07T16:09:44;1.83;;;1.60;;
7076;SDS011;3579;48.956;9.154;2022-12-07T16:12:11;1.80;;;1.70;;
7076;SDS011;3579;48.956;9.154;2022-12-07T16:14:38;2.00;;;1.77;;
7076;SDS011;3579;48.956;9.154;2022-12-07T16:17:05;1.70;;;1.60;;
7076;SDS011;3579;48.956;9.154;2022-12-07T16:19:33;1.73;;;1.60;;
7076;SDS011;3579;48.956;9.154;2022-12-07T16:21:59;2.20;;;1.70;;
7076;SDS011;3579;48.956;9.154;2022-12-07T16:24:26;1.87;;;1.60;;
7076;SDS011;3579;48.956;9.154;2022-12-07T16:26:52;1.50;;;1.40;;
7076;SDS011;3579;48.956;9.154;2022-12-07T16:29:20;1.73;;;1.60;;
7076;SDS011;3579;48.956;9.154;2022-12-07T16:31:47;1.90;;;1.67;;
7076;SDS011;3579;48.956;9.154;2022-12-07T16:34:14;2.23;;;1.63;;
7076;SDS011;3579;48.956;9.154;2022-12-07T16:36:40;2.00;;;1.73;;
7076;SDS011;3579;48.956;9.154;2022-12-07T16:39:08;2.03;;;1.83;;
7076;SDS011;3579;48.956;9.154;2022-12-07T16:41:34;2.23;;;1.90;;
7076;SDS011;3579;48.956;9.154;2022-12-07T16:44:05;2.57;;;1.70;;
7076;SDS011;3579;48.956;9.154;2022-12-07T16:46:33;1.90;;;1.70;;
7076;SDS011;3579;48.956;9.154;2022-12-07T16:49:00;2.93;;;1.57;;
7076;SDS011;3579;48.956;9.154;2022-12-07T16:51:27;1.93;;;1.73;;
7076;SDS011;3579;48.956;9.154;2022-12-07T16:53:56;2.27;;;1.70;;
7076;SDS011;3579;48.956;9.154;2022-12-07T16:56:28;1.73;;;1.63;;
7076;SDS011;3579;48.956;9.154;2022-12-07T16:58:54;1.97;;;1.73;;
7076;SDS011;3579;48.956;9.154;2022-12-07T17:01:22;1.90;;;1.63;;
7076;SDS011;3579;48.956;9.154;2022-12-07T17:03:48;1.77;;;1.63;;
7076;SDS011;3579;48.956;9.154;2022-12-07T17:06:19;1.80;;;1.70;;
7076;SDS011;3579;48.956;9.154;2022-12-07T17:08:47;2.00;;;1.80;;
7076;SDS011;3579;48.956;9.154;2022-12-07T17:11:18;1.70;;;1.60;;
7076;SDS011;3579;48.956;9.154;2022-12-07T17:13:50;2.27;;;1.60;;
7076;SDS011;3579;48.956;9.154;2022-12-07T17:16:34;1.70;;;1.60;;
7076;SDS011;3579;48.956;9.154;2022-12-07T17:19:05;1.80;;;1.60;;
7076;SDS011;3579;48.956;9.154;2022-12-07T17:21:33;2.00;;;1.80;;
7076;SDS011;3579;48.956;9.154;2022-12-07T17:23:59;3.53;;;1.80;;
7076;SDS011;3579;48.956;9.154;2022-12-07T17:26:27;1.90;;;1.70;;
7076;SDS011;3579;48.956;9.154;2022-12-07T17:28:54;2.00;;;1.80;;
7076;SDS011;3579;48.956;9.154;2022-12-07T17:31:21;2.07;;;1.80;;
7076;SDS011;3579;48.956;9.154;2022-12-07T17:33:48;2.57;;;1.90;;
7076;SDS011;3579;48.956;9.154;2022-12-07T17:36:16;2.80;;;1.70;;
7076;SDS011;3579;48.956;9.154;2022-12-07T17:38:47;2.37;;;1.80;;
7076;SDS011;3579;48.956;9.154;2022-12-07T17:41:15;2.50;;;1.70;;
7076;SDS011;3579;48.956;9.154;2022-12-07T17:44:02;1.90;;;1.60;;
7076;SDS011;3579;48.956;9.154;2022-12-07T17:46:29;2.23;;;1.90;;
7076;SDS011;3579;48.956;9.154;2022-12-07T17:48:56;2.10;;;1.90;;
7076;SDS011;3579;48.956;9.154;2022-12-07T17:51:23;2.00;;;1.70;;
7076;SDS011;3579;48.956;9.154;2022-12-07T17:54:08;1.90;;;1.70;;
7076;SDS011;3579;48.956;9.154;2022-12-07T17:56:35;2.10;;;1.90;;
7076;SDS011;3579;48.956;9.154;2022-12-07T17:59:02;1.80;;;1.70;;